sensor_id;sensor_type;location;lat;lon;timestamp;P1;durP1;ratioP1;P2;durP2;ratioP2
44694;SDS011;32845;59.422;17.930;2023-08-01T00:00:08;11.18;;;1.60;;
44694;SDS011;32845;59.422;17.930;2023-08-01T00:04:39;8.68;;;2.20;;
44694;SDS011;32845;59.422;17.930;2023-08-01T00:09:09;8.55;;;1.90;;
44694;SDS011;32845;59.422;17.930;2023-08-01T00:13:40;7.10;;;2.10;;
44694;SDS011;32845;59.422;17.930;2023-08-01T00:18:11;12.10;;;1.95;;
44694;SDS011;32845;59.422;17.930;2023-08-01T00:22:41;6.28;;;2.03;;
44694;SDS011;32845;59.422;17.930;2023-08-01T00:27:13;10.70;;;2.17;;
44694;SDS011;32845;59.422;17.930;2023-08-01T00:31:44;8.15;;;2.08;;
44694;SDS011;32845;59.422;17.930;2023-08-01T00:36:14;7.40;;;1.77;;
44694;SDS011;32845;59.422;17.930;2023-08-01T00:40:45;10.05;;;1.88;;
44694;SDS011;32845;59.422;17.930;2023-08-01T00:45:16;10.15;;;2.08;;
44694;SDS011;32845;59.422;17.930;2023-08-01T00:49:47;5.97;;;1.70;;
44694;SDS011;32845;59.422;17.930;2023-08-01T00:54:19;4.10;;;1.58;;
44694;SDS011;32845;59.422;17.930;2023-08-01T00:58:49;9.35;;;2.05;;
44694;SDS011;32845;59.422;17.930;2023-08-01T01:03:20;11.35;;;1.88;;
44694;SDS011;32845;59.422;17.930;2023-08-01T01:07:50;4.55;;;2.08;;
44694;SDS011;32845;59.422;17.930;2023-08-01T01:12:21;6.20;;;1.92;;
44694;SDS011;32845;59.422;17.930;2023-08-01T01:16:52;8.27;;;2.00;;
44694;SDS011;32845;59.422;17.930;2023-08-01T01:21:23;6.13;;;1.60;;
44694;SDS011;32845;59.422;17.930;2023-08-01T01:25:53;7.72;;;1.73;;
44694;SDS011;32845;59.422;17.930;2023-08-01T01:30:27;11.55;;;1.67;;
44694;SDS011;32845;59.422;17.930;2023-08-01T01:34:58;12.00;;;2.03;;
44694;SDS011;32845;59.422;17.930;2023-08-01T01:39:30;9.77;;;1.83;;
44694;SDS011;32845;59.422;17.930;2023-08-01T01:44:01;8.32;;;1.98;;
44694;SDS011;32845;59.422;17.930;2023-08-01T01:48:32;6.75;;;1.63;;
44694;SDS011;32845;59.422;17.930;2023-08-01T01:53:02;5.47;;;1.80;;
44694;SDS011;32845;59.422;17.930;2023-08-01T01:57:33;7.53;;;1.83;;
44694;SDS011;32845;59.422;17.930;2023-08-01T02:02:06;4.35;;;1.63;;
44694;SDS011;32845;59.422;17.930;2023-08-01T02:06:38;4.28;;;1.52;;
44694;SDS011;32845;59.422;17.930;2023-08-01T02:11:08;5.05;;;1.55;;
44694;SDS011;32845;59.422;17.930;2023-08-01T02:15:39;4.53;;;2.15;;
44694;SDS011;32845;59.422;17.930;2023-08-01T02:20:09;3.67;;;1.55;;
44694;SDS011;32845;59.422;17.930;2023-08-01T02:24:40;7.75;;;1.50;;
44694;SDS011;32845;59.422;17.930;2023-08-01T02:29:11;6.35;;;1.83;;
44694;SDS011;32845;59.422;17.930;2023-08-01T02:33:42;10.77;;;1.83;;
44694;SDS011;32845;59.422;17.930;2023-08-01T02:38:12;6.10;;;1.90;;
44694;SDS011;32845;59.422;17.930;2023-08-01T02:42:43;6.95;;;1.80;;
44694;SDS011;32845;59.422;17.930;2023-08-01T02:47:13;8.27;;;1.60;;
44694;SDS011;32845;59.422;17.930;2023-08-01T02:51:44;2.33;;;1.73;;
44694;SDS011;32845;59.422;17.930;2023-08-01T02:56:15;6.18;;;1.60;;
44694;SDS011;32845;59.422;17.930;2023-08-01T03:00:45;9.85;;;1.65;;
44694;SDS011;32845;59.422;17.930;2023-08-01T03:05:17;8.10;;;1.55;;
44694;SDS011;32845;59.422;17.930;2023-08-01T03:09:48;7.68;;;2.00;;
44694;SDS011;32845;59.422;17.930;2023-08-01T03:14:19;4.03;;;1.95;;
44694;SDS011;32845;59.422;17.930;2023-08-01T03:18:49;3.33;;;1.38;;
44694;SDS011;32845;59.422;17.930;2023-08-01T03:23:20;8.50;;;1.98;;
44694;SDS011;32845;59.422;17.930;2023-08-01T03:27:50;9.25;;;1.55;;
44694;SDS011;32845;59.422;17.930;2023-08-01T03:32:21;10.80;;;1.70;;
44694;SDS011;32845;59.422;17.930;2023-08-01T03:36:52;3.50;;;1.60;;
44694;SDS011;32845;59.422;17.930;2023-08-01T03:41:22;7.32;;;1.85;;
44694;SDS011;32845;59.422;17.930;2023-08-01T03:45:53;4.85;;;1.65;;
44694;SDS011;32845;59.422;17.930;2023-08-01T03:50:24;7.47;;;1.65;;
44694;SDS011;32845;59.422;17.930;2023-08-01T03:54:55;5.32;;;1.73;;
44694;SDS011;32845;59.422;17.930;2023-08-01T03:59:26;6.95;;;1.63;;
44694;SDS011;32845;59.422;17.930;2023-08-01T04:03:56;7.32;;;1.60;;
44694;SDS011;32845;59.422;17.930;2023-08-01T04:08:27;4.88;;;1.85;;
44694;SDS011;32845;59.422;17.930;2023-08-01T04:12:57;7.82;;;2.08;;
44694;SDS011;32845;59.422;17.930;2023-08-01T04:17:28;8.32;;;1.80;;
44694;SDS011;32845;59.422;17.930;2023-08-01T04:21:59;7.38;;;2.10;;
44694;SDS011;32845;59.422;17.930;2023-08-01T04:26:30;6.95;;;1.70;;
44694;SDS011;32845;59.422;17.930;2023-08-01T04:31:01;6.65;;;2.05;;
44694;SDS011;32845;59.422;17.930;2023-08-01T04:35:31;12.27;;;2.35;;
44694;SDS011;32845;59.422;17.930;2023-08-01T04:40:02;5.43;;;2.20;;
44694;SDS011;32845;59.422;17.930;2023-08-01T04:44:33;6.03;;;2.00;;
44694;SDS011;32845;59.422;17.930;2023-08-01T04:49:03;5.60;;;1.75;;
44694;SDS011;32845;59.422;17.930;2023-08-01T04:53:34;6.95;;;1.85;;
44694;SDS011;32845;59.422;17.930;2023-08-01T04:58:04;12.93;;;2.47;;
44694;SDS011;32845;59.422;17.930;2023-08-01T05:02:40;4.32;;;2.10;;
44694;SDS011;32845;59.422;17.930;2023-08-01T05:07:11;7.78;;;1.92;;
44694;SDS011;32845;59.422;17.930;2023-08-01T05:11:41;6.95;;;2.00;;
44694;SDS011;32845;59.422;17.930;2023-08-01T05:16:12;15.68;;;2.03;;
44694;SDS011;32845;59.422;17.930;2023-08-01T05:20:43;7.25;;;1.85;;
44694;SDS011;32845;59.422;17.930;2023-08-01T05:25:13;6.38;;;1.95;;
44694;SDS011;32845;59.422;17.930;2023-08-01T05:29:44;6.55;;;2.08;;
44694;SDS011;32845;59.422;17.930;2023-08-01T05:34:15;6.90;;;1.92;;
44694;SDS011;32845;59.422;17.930;2023-08-01T05:38:45;5.80;;;2.35;;
44694;SDS011;32845;59.422;17.930;2023-08-01T05:43:16;8.30;;;2.30;;
44694;SDS011;32845;59.422;17.930;2023-08-01T05:47:46;15.30;;;2.40;;
44694;SDS011;32845;59.422;17.930;2023-08-01T05:52:17;9.27;;;1.95;;
44694;SDS011;32845;59.422;17.930;2023-08-01T05:56:48;8.80;;;1.90;;
44694;SDS011;32845;59.422;17.930;2023-08-01T06:01:18;10.05;;;2.15;;
44694;SDS011;32845;59.422;17.930;2023-08-01T06:05:49;13.35;;;2.08;;
44694;SDS011;32845;59.422;17.930;2023-08-01T06:10:20;6.93;;;2.03;;
44694;SDS011;32845;59.422;17.930;2023-08-01T06:14:50;6.10;;;1.98;;
44694;SDS011;32845;59.422;17.930;2023-08-01T06:19:21;13.88;;;1.90;;
44694;SDS011;32845;59.422;17.930;2023-08-01T06:23:52;4.53;;;2.15;;
44694;SDS011;32845;59.422;17.930;2023-08-01T06:28:22;12.55;;;2.20;;
44694;SDS011;32845;59.422;17.930;2023-08-01T06:32:53;10.05;;;1.95;;
44694;SDS011;32845;59.422;17.930;2023-08-01T06:37:24;7.65;;;2.15;;
44694;SDS011;32845;59.422;17.930;2023-08-01T06:41:54;6.65;;;1.85;;
44694;SDS011;32845;59.422;17.930;2023-08-01T06:46:25;8.65;;;1.63;;
44694;SDS011;32845;59.422;17.930;2023-08-01T06:50:56;3.95;;;1.50;;
44694;SDS011;32845;59.422;17.930;2023-08-01T06:55:26;5.40;;;1.50;;
44694;SDS011;32845;59.422;17.930;2023-08-01T06:59:57;11.73;;;2.13;;
44694;SDS011;32845;59.422;17.930;2023-08-01T07:04:28;9.50;;;1.90;;
44694;SDS011;32845;59.422;17.930;2023-08-01T07:08:58;4.50;;;1.60;;
44694;SDS011;32845;59.422;17.930;2023-08-01T07:13:29;5.85;;;2.10;;
44694;SDS011;32845;59.422;17.930;2023-08-01T07:18:00;9.25;;;2.30;;
44694;SDS011;32845;59.422;17.930;2023-08-01T07:22:30;10.10;;;2.38;;
44694;SDS011;32845;59.422;17.930;2023-08-01T07:27:01;4.75;;;1.65;;
44694;SDS011;32845;59.422;17.930;2023-08-01T07:31:32;7.78;;;1.88;;
44694;SDS011;32845;59.422;17.930;2023-08-01T07:36:03;6.70;;;1.50;;
44694;SDS011;32845;59.422;17.930;2023-08-01T07:40:35;8.35;;;1.70;;
44694;SDS011;32845;59.422;17.930;2023-08-01T07:45:06;4.97;;;1.90;;
44694;SDS011;32845;59.422;17.930;2023-08-01T07:49:37;7.88;;;1.50;;
44694;SDS011;32845;59.422;17.930;2023-08-01T07:54:08;4.38;;;1.33;;
44694;SDS011;32845;59.422;17.930;2023-08-01T07:58:38;7.80;;;1.70;;
44694;SDS011;32845;59.422;17.930;2023-08-01T08:03:09;5.35;;;1.40;;
44694;SDS011;32845;59.422;17.930;2023-08-01T08:07:40;9.35;;;1.77;;
44694;SDS011;32845;59.422;17.930;2023-08-01T08:12:10;4.97;;;1.27;;
44694;SDS011;32845;59.422;17.930;2023-08-01T08:16:41;3.60;;;1.13;;
44694;SDS011;32845;59.422;17.930;2023-08-01T08:21:11;5.03;;;1.30;;
44694;SDS011;32845;59.422;17.930;2023-08-01T08:25:42;4.10;;;1.30;;
44694;SDS011;32845;59.422;17.930;2023-08-01T08:30:20;5.78;;;1.45;;
44694;SDS011;32845;59.422;17.930;2023-08-01T08:34:50;9.82;;;1.60;;
44694;SDS011;32845;59.422;17.930;2023-08-01T08:39:21;4.13;;;1.50;;
44694;SDS011;32845;59.422;17.930;2023-08-01T08:43:52;2.25;;;1.25;;
44694;SDS011;32845;59.422;17.930;2023-08-01T08:48:27;6.93;;;1.25;;
44694;SDS011;32845;59.422;17.930;2023-08-01T08:52:58;4.65;;;1.40;;
44694;SDS011;32845;59.422;17.930;2023-08-01T08:57:29;2.85;;;1.20;;
44694;SDS011;32845;59.422;17.930;2023-08-01T09:02:03;3.85;;;1.27;;
44694;SDS011;32845;59.422;17.930;2023-08-01T09:06:34;5.65;;;1.38;;
44694;SDS011;32845;59.422;17.930;2023-08-01T09:11:10;7.53;;;1.52;;
44694;SDS011;32845;59.422;17.930;2023-08-01T09:15:41;6.43;;;1.10;;
44694;SDS011;32845;59.422;17.930;2023-08-01T09:20:13;5.57;;;1.20;;
44694;SDS011;32845;59.422;17.930;2023-08-01T09:24:50;4.32;;;1.00;;
44694;SDS011;32845;59.422;17.930;2023-08-01T09:29:24;5.43;;;1.58;;
44694;SDS011;32845;59.422;17.930;2023-08-01T09:33:55;6.93;;;1.63;;
44694;SDS011;32845;59.422;17.930;2023-08-01T09:38:25;4.07;;;1.20;;
44694;SDS011;32845;59.422;17.930;2023-08-01T09:43:00;3.28;;;1.15;;
44694;SDS011;32845;59.422;17.930;2023-08-01T09:47:37;6.25;;;1.63;;
44694;SDS011;32845;59.422;17.930;2023-08-01T09:52:08;3.70;;;1.02;;
44694;SDS011;32845;59.422;17.930;2023-08-01T09:56:39;9.38;;;1.30;;
44694;SDS011;32845;59.422;17.930;2023-08-01T10:01:14;2.22;;;1.10;;
44694;SDS011;32845;59.422;17.930;2023-08-01T10:05:46;1.75;;;0.90;;
44694;SDS011;32845;59.422;17.930;2023-08-01T10:10:17;4.13;;;0.88;;
44694;SDS011;32845;59.422;17.930;2023-08-01T10:14:48;2.65;;;0.98;;
44694;SDS011;32845;59.422;17.930;2023-08-01T10:19:19;4.25;;;0.70;;
44694;SDS011;32845;59.422;17.930;2023-08-01T10:23:50;3.80;;;0.70;;
44694;SDS011;32845;59.422;17.930;2023-08-01T10:28:30;3.72;;;0.75;;
44694;SDS011;32845;59.422;17.930;2023-08-01T10:33:11;1.77;;;0.85;;
44694;SDS011;32845;59.422;17.930;2023-08-01T10:37:44;1.77;;;0.90;;
44694;SDS011;32845;59.422;17.930;2023-08-01T10:42:17;4.57;;;1.40;;
44694;SDS011;32845;59.422;17.930;2023-08-01T10:46:48;1.92;;;0.85;;
44694;SDS011;32845;59.422;17.930;2023-08-01T10:51:20;2.30;;;0.90;;
44694;SDS011;32845;59.422;17.930;2023-08-01T10:55:51;3.45;;;0.95;;
44694;SDS011;32845;59.422;17.930;2023-08-01T11:00:22;2.20;;;0.80;;
44694;SDS011;32845;59.422;17.930;2023-08-01T11:05:00;2.90;;;1.02;;
44694;SDS011;32845;59.422;17.930;2023-08-01T11:09:32;1.77;;;1.05;;
44694;SDS011;32845;59.422;17.930;2023-08-01T11:14:03;0.90;;;0.80;;
44694;SDS011;32845;59.422;17.930;2023-08-01T11:18:42;3.10;;;1.20;;
44694;SDS011;32845;59.422;17.930;2023-08-01T11:23:13;1.38;;;0.90;;
44694;SDS011;32845;59.422;17.930;2023-08-01T11:27:44;2.58;;;1.10;;
44694;SDS011;32845;59.422;17.930;2023-08-01T11:32:14;2.75;;;1.08;;
44694;SDS011;32845;59.422;17.930;2023-08-01T11:36:45;2.00;;;0.80;;
44694;SDS011;32845;59.422;17.930;2023-08-01T11:41:16;2.85;;;1.02;;
44694;SDS011;32845;59.422;17.930;2023-08-01T11:50:21;2.95;;;1.38;;
44694;SDS011;32845;59.422;17.930;2023-08-01T11:54:54;3.45;;;0.70;;
44694;SDS011;32845;59.422;17.930;2023-08-01T11:59:25;4.57;;;1.02;;
44694;SDS011;32845;59.422;17.930;2023-08-01T12:03:56;1.67;;;0.93;;
44694;SDS011;32845;59.422;17.930;2023-08-01T12:08:31;2.53;;;0.90;;
44694;SDS011;32845;59.422;17.930;2023-08-01T12:13:05;5.22;;;1.08;;
44694;SDS011;32845;59.422;17.930;2023-08-01T12:17:35;1.77;;;0.77;;
44694;SDS011;32845;59.422;17.930;2023-08-01T12:22:06;3.35;;;1.00;;
44694;SDS011;32845;59.422;17.930;2023-08-01T12:26:36;10.93;;;2.22;;
44694;SDS011;32845;59.422;17.930;2023-08-01T12:31:07;1.63;;;1.00;;
44694;SDS011;32845;59.422;17.930;2023-08-01T12:35:41;3.45;;;1.17;;
44694;SDS011;32845;59.422;17.930;2023-08-01T12:40:12;4.15;;;1.10;;
44694;SDS011;32845;59.422;17.930;2023-08-01T12:44:42;3.92;;;1.20;;
44694;SDS011;32845;59.422;17.930;2023-08-01T12:49:13;1.48;;;0.90;;
44694;SDS011;32845;59.422;17.930;2023-08-01T12:53:43;2.17;;;0.90;;
44694;SDS011;32845;59.422;17.930;2023-08-01T12:58:14;2.25;;;1.10;;
44694;SDS011;32845;59.422;17.930;2023-08-01T13:02:45;18.00;;;1.25;;
44694;SDS011;32845;59.422;17.930;2023-08-01T13:07:17;2.13;;;0.95;;
44694;SDS011;32845;59.422;17.930;2023-08-01T13:11:48;4.28;;;0.98;;
44694;SDS011;32845;59.422;17.930;2023-08-01T13:16:18;5.60;;;1.20;;
44694;SDS011;32845;59.422;17.930;2023-08-01T13:20:49;2.83;;;0.95;;
44694;SDS011;32845;59.422;17.930;2023-08-01T13:25:19;3.50;;;1.05;;
44694;SDS011;32845;59.422;17.930;2023-08-01T13:29:50;7.07;;;0.90;;
44694;SDS011;32845;59.422;17.930;2023-08-01T13:34:24;2.85;;;0.82;;
44694;SDS011;32845;59.422;17.930;2023-08-01T13:38:54;9.18;;;1.20;;
44694;SDS011;32845;59.422;17.930;2023-08-01T13:43:25;3.53;;;1.23;;
44694;SDS011;32845;59.422;17.930;2023-08-01T13:47:56;3.20;;;0.98;;
44694;SDS011;32845;59.422;17.930;2023-08-01T13:52:26;6.25;;;0.90;;
44694;SDS011;32845;59.422;17.930;2023-08-01T13:56:57;2.65;;;0.98;;
44694;SDS011;32845;59.422;17.930;2023-08-01T14:01:27;5.38;;;1.05;;
44694;SDS011;32845;59.422;17.930;2023-08-01T14:06:05;2.13;;;0.95;;
44694;SDS011;32845;59.422;17.930;2023-08-01T14:10:37;3.28;;;1.08;;
44694;SDS011;32845;59.422;17.930;2023-08-01T14:15:08;6.15;;;1.00;;
44694;SDS011;32845;59.422;17.930;2023-08-01T14:19:39;4.90;;;0.95;;
44694;SDS011;32845;59.422;17.930;2023-08-01T14:24:10;3.33;;;1.20;;
44694;SDS011;32845;59.422;17.930;2023-08-01T14:28:41;2.38;;;1.00;;
44694;SDS011;32845;59.422;17.930;2023-08-01T14:33:11;1.80;;;0.75;;
44694;SDS011;32845;59.422;17.930;2023-08-01T14:37:43;3.33;;;0.90;;
44694;SDS011;32845;59.422;17.930;2023-08-01T14:42:18;5.03;;;1.20;;
44694;SDS011;32845;59.422;17.930;2023-08-01T14:46:48;2.88;;;1.02;;
44694;SDS011;32845;59.422;17.930;2023-08-01T14:51:19;2.15;;;0.90;;
44694;SDS011;32845;59.422;17.930;2023-08-01T14:55:58;2.92;;;0.98;;
44694;SDS011;32845;59.422;17.930;2023-08-01T15:00:35;4.53;;;1.10;;
44694;SDS011;32845;59.422;17.930;2023-08-01T15:05:06;2.25;;;1.00;;
44694;SDS011;32845;59.422;17.930;2023-08-01T15:09:37;3.80;;;1.00;;
44694;SDS011;32845;59.422;17.930;2023-08-01T15:14:07;2.83;;;1.10;;
44694;SDS011;32845;59.422;17.930;2023-08-01T15:18:39;1.88;;;1.02;;
44694;SDS011;32845;59.422;17.930;2023-08-01T15:23:10;1.50;;;0.82;;
44694;SDS011;32845;59.422;17.930;2023-08-01T15:27:41;3.80;;;0.82;;
44694;SDS011;32845;59.422;17.930;2023-08-01T15:32:11;2.80;;;0.93;;
44694;SDS011;32845;59.422;17.930;2023-08-01T15:36:42;2.65;;;1.08;;
44694;SDS011;32845;59.422;17.930;2023-08-01T15:41:16;4.40;;;0.85;;
44694;SDS011;32845;59.422;17.930;2023-08-01T15:45:47;1.77;;;0.73;;
44694;SDS011;32845;59.422;17.930;2023-08-01T15:50:17;2.20;;;0.70;;
44694;SDS011;32845;59.422;17.930;2023-08-01T15:54:48;1.65;;;0.70;;
44694;SDS011;32845;59.422;17.930;2023-08-01T15:59:19;2.28;;;0.70;;
44694;SDS011;32845;59.422;17.930;2023-08-01T16:03:49;4.72;;;0.90;;
44694;SDS011;32845;59.422;17.930;2023-08-01T16:08:20;1.60;;;0.80;;
44694;SDS011;32845;59.422;17.930;2023-08-01T16:12:51;4.53;;;1.10;;
44694;SDS011;32845;59.422;17.930;2023-08-01T16:17:22;2.65;;;0.93;;
44694;SDS011;32845;59.422;17.930;2023-08-01T16:21:53;1.88;;;0.70;;
44694;SDS011;32845;59.422;17.930;2023-08-01T16:26:23;1.77;;;0.90;;
44694;SDS011;32845;59.422;17.930;2023-08-01T16:30:54;2.45;;;0.95;;
44694;SDS011;32845;59.422;17.930;2023-08-01T16:35:24;2.78;;;1.10;;
44694;SDS011;32845;59.422;17.930;2023-08-01T16:39:55;1.70;;;0.80;;
44694;SDS011;32845;59.422;17.930;2023-08-01T16:44:26;1.35;;;0.70;;
44694;SDS011;32845;59.422;17.930;2023-08-01T16:48:56;0.93;;;0.70;;
44694;SDS011;32845;59.422;17.930;2023-08-01T16:53:28;3.15;;;0.85;;
44694;SDS011;32845;59.422;17.930;2023-08-01T16:57:58;1.42;;;0.90;;
44694;SDS011;32845;59.422;17.930;2023-08-01T17:02:29;2.72;;;0.90;;
44694;SDS011;32845;59.422;17.930;2023-08-01T17:07:00;2.97;;;1.83;;
44694;SDS011;32845;59.422;17.930;2023-08-01T17:11:33;5.25;;;1.58;;
44694;SDS011;32845;59.422;17.930;2023-08-01T17:16:04;7.78;;;0.90;;
44694;SDS011;32845;59.422;17.930;2023-08-01T17:20:38;5.40;;;1.05;;
44694;SDS011;32845;59.422;17.930;2023-08-01T17:25:09;4.35;;;1.45;;
44694;SDS011;32845;59.422;17.930;2023-08-01T17:29:40;2.65;;;1.20;;
44694;SDS011;32845;59.422;17.930;2023-08-01T17:34:10;2.42;;;0.90;;
44694;SDS011;32845;59.422;17.930;2023-08-01T17:38:41;4.75;;;0.90;;
44694;SDS011;32845;59.422;17.930;2023-08-01T17:43:12;2.35;;;0.80;;
44694;SDS011;32845;59.422;17.930;2023-08-01T17:47:42;2.95;;;0.90;;
44694;SDS011;32845;59.422;17.930;2023-08-01T17:52:13;5.25;;;1.20;;
44694;SDS011;32845;59.422;17.930;2023-08-01T17:56:44;0.80;;;0.70;;
44694;SDS011;32845;59.422;17.930;2023-08-01T18:01:14;3.38;;;1.00;;
44694;SDS011;32845;59.422;17.930;2023-08-01T18:05:45;7.13;;;1.13;;
44694;SDS011;32845;59.422;17.930;2023-08-01T18:10:15;2.10;;;0.77;;
44694;SDS011;32845;59.422;17.930;2023-08-01T18:14:46;1.15;;;0.70;;
44694;SDS011;32845;59.422;17.930;2023-08-01T18:19:17;1.92;;;0.80;;
44694;SDS011;32845;59.422;17.930;2023-08-01T18:23:48;1.50;;;0.70;;
44694;SDS011;32845;59.422;17.930;2023-08-01T18:28:19;2.38;;;0.65;;
44694;SDS011;32845;59.422;17.930;2023-08-01T18:32:49;1.70;;;0.80;;
44694;SDS011;32845;59.422;17.930;2023-08-01T18:37:20;1.35;;;0.65;;
44694;SDS011;32845;59.422;17.930;2023-08-01T18:41:50;3.28;;;0.80;;
44694;SDS011;32845;59.422;17.930;2023-08-01T18:46:23;2.25;;;0.60;;
44694;SDS011;32845;59.422;17.930;2023-08-01T18:50:54;1.35;;;0.70;;
44694;SDS011;32845;59.422;17.930;2023-08-01T18:55:25;1.83;;;0.68;;
44694;SDS011;32845;59.422;17.930;2023-08-01T18:59:55;2.30;;;0.70;;
44694;SDS011;32845;59.422;17.930;2023-08-01T19:04:26;1.42;;;0.50;;
44694;SDS011;32845;59.422;17.930;2023-08-01T19:08:58;1.10;;;0.70;;
44694;SDS011;32845;59.422;17.930;2023-08-01T19:13:29;1.25;;;0.60;;
44694;SDS011;32845;59.422;17.930;2023-08-01T19:18:00;4.38;;;0.80;;
44694;SDS011;32845;59.422;17.930;2023-08-01T19:22:31;4.90;;;1.02;;
44694;SDS011;32845;59.422;17.930;2023-08-01T19:27:01;1.65;;;0.90;;
44694;SDS011;32845;59.422;17.930;2023-08-01T19:31:32;3.03;;;0.77;;
44694;SDS011;32845;59.422;17.930;2023-08-01T19:36:03;2.88;;;0.68;;
44694;SDS011;32845;59.422;17.930;2023-08-01T19:40:37;1.73;;;0.70;;
44694;SDS011;32845;59.422;17.930;2023-08-01T19:45:14;2.17;;;0.70;;
44694;SDS011;32845;59.422;17.930;2023-08-01T19:49:45;8.95;;;0.93;;
44694;SDS011;32845;59.422;17.930;2023-08-01T19:54:15;1.63;;;0.70;;
44694;SDS011;32845;59.422;17.930;2023-08-01T19:58:46;3.08;;;0.60;;
44694;SDS011;32845;59.422;17.930;2023-08-01T20:03:17;2.88;;;0.90;;
44694;SDS011;32845;59.422;17.930;2023-08-01T20:07:49;4.18;;;0.75;;
44694;SDS011;32845;59.422;17.930;2023-08-01T20:12:23;7.55;;;1.23;;
44694;SDS011;32845;59.422;17.930;2023-08-01T20:16:54;1.00;;;0.60;;
44694;SDS011;32845;59.422;17.930;2023-08-01T20:21:25;1.02;;;0.63;;
44694;SDS011;32845;59.422;17.930;2023-08-01T20:25:55;1.13;;;0.70;;
44694;SDS011;32845;59.422;17.930;2023-08-01T20:30:26;1.42;;;0.82;;
44694;SDS011;32845;59.422;17.930;2023-08-01T20:34:57;2.03;;;0.73;;
44694;SDS011;32845;59.422;17.930;2023-08-01T20:39:30;0.68;;;0.68;;
44694;SDS011;32845;59.422;17.930;2023-08-01T20:44:02;1.25;;;0.70;;
44694;SDS011;32845;59.422;17.930;2023-08-01T20:48:33;1.42;;;0.90;;
44694;SDS011;32845;59.422;17.930;2023-08-01T20:53:04;3.20;;;0.80;;
44694;SDS011;32845;59.422;17.930;2023-08-01T20:57:35;3.55;;;0.70;;
44694;SDS011;32845;59.422;17.930;2023-08-01T21:02:05;4.07;;;1.30;;
44694;SDS011;32845;59.422;17.930;2023-08-01T21:06:39;15.95;;;1.15;;
44694;SDS011;32845;59.422;17.930;2023-08-01T21:11:10;4.22;;;0.95;;
44694;SDS011;32845;59.422;17.930;2023-08-01T21:15:41;10.48;;;1.08;;
44694;SDS011;32845;59.422;17.930;2023-08-01T21:20:12;1.63;;;0.90;;
44694;SDS011;32845;59.422;17.930;2023-08-01T21:24:46;2.13;;;0.90;;
44694;SDS011;32845;59.422;17.930;2023-08-01T21:29:17;5.10;;;1.20;;
44694;SDS011;32845;59.422;17.930;2023-08-01T21:33:49;3.30;;;0.80;;
44694;SDS011;32845;59.422;17.930;2023-08-01T21:38:20;2.08;;;0.93;;
44694;SDS011;32845;59.422;17.930;2023-08-01T21:42:51;3.47;;;0.77;;
44694;SDS011;32845;59.422;17.930;2023-08-01T21:47:21;1.63;;;0.80;;
44694;SDS011;32845;59.422;17.930;2023-08-01T21:51:52;1.40;;;0.88;;
44694;SDS011;32845;59.422;17.930;2023-08-01T21:56:22;2.17;;;0.88;;
44694;SDS011;32845;59.422;17.930;2023-08-01T22:00:53;0.93;;;0.60;;
44694;SDS011;32845;59.422;17.930;2023-08-01T22:05:24;1.25;;;0.50;;
44694;SDS011;32845;59.422;17.930;2023-08-01T22:09:55;3.97;;;0.70;;
44694;SDS011;32845;59.422;17.930;2023-08-01T22:14:27;0.90;;;0.70;;
44694;SDS011;32845;59.422;17.930;2023-08-01T22:18:57;1.33;;;0.68;;
44694;SDS011;32845;59.422;17.930;2023-08-01T22:23:28;3.63;;;0.93;;
44694;SDS011;32845;59.422;17.930;2023-08-01T22:27:59;1.20;;;0.47;;
44694;SDS011;32845;59.422;17.930;2023-08-01T22:32:30;1.25;;;0.70;;
44694;SDS011;32845;59.422;17.930;2023-08-01T22:37:00;2.17;;;0.70;;
44694;SDS011;32845;59.422;17.930;2023-08-01T22:41:31;0.80;;;0.63;;
44694;SDS011;32845;59.422;17.930;2023-08-01T22:46:02;3.45;;;0.75;;
44694;SDS011;32845;59.422;17.930;2023-08-01T22:50:32;1.23;;;0.60;;
44694;SDS011;32845;59.422;17.930;2023-08-01T22:55:03;1.77;;;0.80;;
44694;SDS011;32845;59.422;17.930;2023-08-01T22:59:34;0.70;;;0.55;;
44694;SDS011;32845;59.422;17.930;2023-08-01T23:04:05;1.88;;;0.68;;
44694;SDS011;32845;59.422;17.930;2023-08-01T23:08:35;1.52;;;0.70;;
44694;SDS011;32845;59.422;17.930;2023-08-01T23:13:06;1.40;;;0.68;;
44694;SDS011;32845;59.422;17.930;2023-08-01T23:17:37;1.02;;;0.73;;
44694;SDS011;32845;59.422;17.930;2023-08-01T23:22:07;1.13;;;0.70;;
44694;SDS011;32845;59.422;17.930;2023-08-01T23:26:38;0.75;;;0.70;;
44694;SDS011;32845;59.422;17.930;2023-08-01T23:31:08;1.45;;;0.70;;
44694;SDS011;32845;59.422;17.930;2023-08-01T23:35:42;0.90;;;0.80;;
44694;SDS011;32845;59.422;17.930;2023-08-01T23:40:12;1.08;;;0.80;;
44694;SDS011;32845;59.422;17.930;2023-08-01T23:44:43;1.08;;;0.80;;
44694;SDS011;32845;59.422;17.930;2023-08-01T23:49:13;1.35;;;0.70;;
44694;SDS011;32845;59.422;17.930;2023-08-01T23:53:44;3.58;;;0.70;;
44694;SDS011;32845;59.422;17.930;2023-08-01T23:58:16;0.93;;;0.75;;
